sensor_id;sensor_type;location;lat;lon;timestamp;pressure;altitude;pressure_sealevel;temperature;humidity
33189;BME280;52601;53.070;10.600;2023-01-15T00:02:23;99181.88;;;8.65;100.00
33189;BME280;52601;53.070;10.600;2023-01-15T00:05:09;99185.19;;;8.54;100.00
33189;BME280;52601;53.070;10.600;2023-01-15T00:07:54;99204.06;;;8.45;100.00
33189;BME280;52601;53.070;10.600;2023-01-15T00:10:40;99193.47;;;8.34;100.00
33189;BME280;52601;53.070;10.600;2023-01-15T00:13:25;99204.66;;;8.36;100.00
33189;BME280;52601;53.070;10.600;2023-01-15T00:16:16;99205.25;;;8.13;100.00
33189;BME280;52601;53.070;10.600;2023-01-15T00:19:02;99209.34;;;8.03;100.00
33189;BME280;52601;53.070;10.600;2023-01-15T00:21:49;99218.13;;;7.88;100.00
33189;BME280;52601;53.070;10.600;2023-01-15T00:24:34;99221.38;;;7.77;100.00
33189;BME280;52601;53.070;10.600;2023-01-15T00:27:38;99231.63;;;7.80;100.00
33189;BME280;52601;53.070;10.600;2023-01-15T00:30:23;99240.84;;;7.72;100.00
33189;BME280;52601;53.070;10.600;2023-01-15T00:33:09;99226.41;;;7.66;100.00
33189;BME280;52601;53.070;10.600;2023-01-15T00:35:54;99228.75;;;7.71;100.00
33189;BME280;52601;53.070;10.600;2023-01-15T00:38:41;99231.72;;;7.65;100.00
33189;BME280;52601;53.070;10.600;2023-01-15T00:41:27;99245.41;;;7.68;100.00
33189;BME280;52601;53.070;10.600;2023-01-15T00:44:13;99240.31;;;7.67;100.00
33189;BME280;52601;53.070;10.600;2023-01-15T00:46:58;99247.25;;;7.52;100.00
33189;BME280;52601;53.070;10.600;2023-01-15T00:49:44;99254.34;;;7.50;100.00
33189;BME280;52601;53.070;10.600;2023-01-15T00:52:29;99234.09;;;7.40;100.00
33189;BME280;52601;53.070;10.600;2023-01-15T00:55:18;99236.53;;;7.43;100.00
33189;BME280;52601;53.070;10.600;2023-01-15T00:58:03;99244.72;;;7.37;100.00
33189;BME280;52601;53.070;10.600;2023-01-15T01:00:53;99232.78;;;7.33;100.00
33189;BME280;52601;53.070;10.600;2023-01-15T01:03:39;99241.91;;;7.26;100.00
33189;BME280;52601;53.070;10.600;2023-01-15T01:06:25;99254.41;;;7.35;100.00
33189;BME280;52601;53.070;10.600;2023-01-15T01:09:14;99236.13;;;7.21;100.00
33189;BME280;52601;53.070;10.600;2023-01-15T01:12:00;99233.88;;;7.15;100.00
33189;BME280;52601;53.070;10.600;2023-01-15T01:14:46;99234.63;;;7.17;100.00
33189;BME280;52601;53.070;10.600;2023-01-15T01:17:31;99229.00;;;7.09;100.00
33189;BME280;52601;53.070;10.600;2023-01-15T01:20:18;99216.44;;;7.01;100.00
33189;BME280;52601;53.070;10.600;2023-01-15T01:23:03;99241.88;;;7.12;100.00
33189;BME280;52601;53.070;10.600;2023-01-15T01:25:49;99245.50;;;7.09;100.00
33189;BME280;52601;53.070;10.600;2023-01-15T01:28:35;99237.03;;;7.06;100.00
33189;BME280;52601;53.070;10.600;2023-01-15T01:31:20;99247.03;;;6.97;100.00
33189;BME280;52601;53.070;10.600;2023-01-15T01:34:08;99250.56;;;6.96;100.00
33189;BME280;52601;53.070;10.600;2023-01-15T01:36:54;99258.56;;;6.93;100.00
33189;BME280;52601;53.070;10.600;2023-01-15T01:39:39;99234.91;;;6.96;100.00
33189;BME280;52601;53.070;10.600;2023-01-15T01:42:25;99228.31;;;6.91;100.00
33189;BME280;52601;53.070;10.600;2023-01-15T01:45:31;99243.00;;;6.92;100.00
33189;BME280;52601;53.070;10.600;2023-01-15T01:48:21;99251.34;;;6.83;100.00
33189;BME280;52601;53.070;10.600;2023-01-15T01:51:08;99242.34;;;6.88;100.00
33189;BME280;52601;53.070;10.600;2023-01-15T01:53:54;99247.69;;;7.01;100.00
33189;BME280;52601;53.070;10.600;2023-01-15T01:56:40;99247.44;;;6.90;100.00
33189;BME280;52601;53.070;10.600;2023-01-15T01:59:26;99236.72;;;6.80;100.00
33189;BME280;52601;53.070;10.600;2023-01-15T02:02:12;99248.50;;;6.87;100.00
33189;BME280;52601;53.070;10.600;2023-01-15T02:04:58;99237.78;;;6.92;100.00
33189;BME280;52601;53.070;10.600;2023-01-15T02:07:44;99234.41;;;6.90;100.00
33189;BME280;52601;53.070;10.600;2023-01-15T02:10:29;99233.25;;;6.95;100.00
33189;BME280;52601;53.070;10.600;2023-01-15T02:13:36;99241.06;;;6.95;100.00
33189;BME280;52601;53.070;10.600;2023-01-15T02:16:30;99247.09;;;6.96;100.00
33189;BME280;52601;53.070;10.600;2023-01-15T02:19:39;99258.28;;;6.98;100.00
33189;BME280;52601;53.070;10.600;2023-01-15T02:26:05;99254.31;;;7.07;100.00
33189;BME280;52601;53.070;10.600;2023-01-15T02:28:57;99244.25;;;7.01;100.00
33189;BME280;52601;53.070;10.600;2023-01-15T02:31:49;99242.19;;;6.91;100.00
33189;BME280;52601;53.070;10.600;2023-01-15T02:34:36;99229.72;;;6.96;100.00
33189;BME280;52601;53.070;10.600;2023-01-15T02:37:28;99241.06;;;6.95;100.00
33189;BME280;52601;53.070;10.600;2023-01-15T02:40:20;99259.22;;;6.97;100.00
33189;BME280;52601;53.070;10.600;2023-01-15T02:43:07;99259.78;;;7.02;100.00
33189;BME280;52601;53.070;10.600;2023-01-15T02:45:54;99261.91;;;6.95;100.00
33189;BME280;52601;53.070;10.600;2023-01-15T02:48:44;99277.72;;;6.92;100.00
33189;BME280;52601;53.070;10.600;2023-01-15T02:51:38;99283.31;;;7.01;100.00
33189;BME280;52601;53.070;10.600;2023-01-15T02:54:26;99266.28;;;6.95;100.00
33189;BME280;52601;53.070;10.600;2023-01-15T02:57:15;99248.03;;;6.95;100.00
33189;BME280;52601;53.070;10.600;2023-01-15T03:00:06;99251.31;;;6.98;100.00
33189;BME280;52601;53.070;10.600;2023-01-15T03:03:00;99246.09;;;6.98;100.00
33189;BME280;52601;53.070;10.600;2023-01-15T03:08:40;99284.53;;;6.95;100.00
33189;BME280;52601;53.070;10.600;2023-01-15T03:11:25;99294.34;;;6.90;100.00
33189;BME280;52601;53.070;10.600;2023-01-15T03:17:07;99276.69;;;6.95;100.00
33189;BME280;52601;53.070;10.600;2023-01-15T03:20:01;99273.25;;;6.94;100.00
33189;BME280;52601;53.070;10.600;2023-01-15T03:22:53;99288.47;;;6.86;100.00
33189;BME280;52601;53.070;10.600;2023-01-15T03:25:47;99264.13;;;6.87;100.00
33189;BME280;52601;53.070;10.600;2023-01-15T03:28:35;99261.50;;;6.87;100.00
33189;BME280;52601;53.070;10.600;2023-01-15T03:31:22;99254.00;;;6.97;100.00
33189;BME280;52601;53.070;10.600;2023-01-15T03:34:08;99249.53;;;6.99;100.00
33189;BME280;52601;53.070;10.600;2023-01-15T03:36:53;99251.25;;;6.84;100.00
33189;BME280;52601;53.070;10.600;2023-01-15T03:39:39;99253.78;;;6.86;100.00
33189;BME280;52601;53.070;10.600;2023-01-15T03:42:41;99250.75;;;6.93;100.00
33189;BME280;52601;53.070;10.600;2023-01-15T03:45:32;99233.00;;;6.84;100.00
33189;BME280;52601;53.070;10.600;2023-01-15T03:48:39;99259.66;;;6.89;100.00
33189;BME280;52601;53.070;10.600;2023-01-15T03:51:38;99253.34;;;6.93;100.00
33189;BME280;52601;53.070;10.600;2023-01-15T03:54:38;99254.75;;;6.99;100.00
33189;BME280;52601;53.070;10.600;2023-01-15T03:57:35;99239.81;;;6.87;100.00
33189;BME280;52601;53.070;10.600;2023-01-15T04:00:29;99253.16;;;6.96;100.00
33189;BME280;52601;53.070;10.600;2023-01-15T04:03:17;99263.19;;;6.88;100.00
33189;BME280;52601;53.070;10.600;2023-01-15T04:06:05;99273.78;;;6.85;100.00
33189;BME280;52601;53.070;10.600;2023-01-15T04:08:51;99247.38;;;6.91;100.00
33189;BME280;52601;53.070;10.600;2023-01-15T04:11:36;99246.88;;;6.85;100.00
33189;BME280;52601;53.070;10.600;2023-01-15T04:14:22;99239.91;;;6.85;100.00
33189;BME280;52601;53.070;10.600;2023-01-15T04:17:07;99236.56;;;6.83;100.00
33189;BME280;52601;53.070;10.600;2023-01-15T04:19:53;99233.44;;;6.77;100.00
33189;BME280;52601;53.070;10.600;2023-01-15T04:22:38;99238.84;;;6.74;100.00
33189;BME280;52601;53.070;10.600;2023-01-15T04:25:24;99237.50;;;6.67;100.00
33189;BME280;52601;53.070;10.600;2023-01-15T04:28:09;99234.56;;;6.73;100.00
33189;BME280;52601;53.070;10.600;2023-01-15T04:30:56;99230.53;;;6.67;100.00
33189;BME280;52601;53.070;10.600;2023-01-15T04:33:41;99222.88;;;6.64;100.00
33189;BME280;52601;53.070;10.600;2023-01-15T04:36:27;99240.53;;;6.59;100.00
33189;BME280;52601;53.070;10.600;2023-01-15T04:39:13;99229.88;;;6.48;100.00
33189;BME280;52601;53.070;10.600;2023-01-15T04:41:58;99237.66;;;6.48;100.00
33189;BME280;52601;53.070;10.600;2023-01-15T04:45:03;99234.69;;;6.40;100.00
33189;BME280;52601;53.070;10.600;2023-01-15T04:47:48;99232.84;;;6.42;100.00
33189;BME280;52601;53.070;10.600;2023-01-15T04:50:34;99231.31;;;6.38;100.00
33189;BME280;52601;53.070;10.600;2023-01-15T04:53:19;99231.06;;;6.27;100.00
33189;BME280;52601;53.070;10.600;2023-01-15T04:56:05;99241.47;;;6.27;100.00
33189;BME280;52601;53.070;10.600;2023-01-15T04:58:51;99250.69;;;6.17;100.00
33189;BME280;52601;53.070;10.600;2023-01-15T05:01:36;99256.84;;;6.16;100.00
33189;BME280;52601;53.070;10.600;2023-01-15T05:04:22;99255.22;;;6.14;100.00
33189;BME280;52601;53.070;10.600;2023-01-15T05:07:08;99239.41;;;6.01;100.00
33189;BME280;52601;53.070;10.600;2023-01-15T05:09:54;99236.81;;;6.01;100.00
33189;BME280;52601;53.070;10.600;2023-01-15T05:12:39;99230.03;;;5.98;100.00
33189;BME280;52601;53.070;10.600;2023-01-15T05:15:25;99230.63;;;6.03;100.00
33189;BME280;52601;53.070;10.600;2023-01-15T05:18:11;99217.50;;;5.89;100.00
33189;BME280;52601;53.070;10.600;2023-01-15T05:20:59;99224.91;;;5.97;100.00
33189;BME280;52601;53.070;10.600;2023-01-15T05:23:45;99222.16;;;5.83;100.00
33189;BME280;52601;53.070;10.600;2023-01-15T05:26:31;99214.31;;;5.84;100.00
33189;BME280;52601;53.070;10.600;2023-01-15T05:29:17;99216.47;;;5.76;100.00
33189;BME280;52601;53.070;10.600;2023-01-15T05:32:03;99218.69;;;5.84;100.00
33189;BME280;52601;53.070;10.600;2023-01-15T05:34:48;99222.41;;;5.78;100.00
33189;BME280;52601;53.070;10.600;2023-01-15T05:37:34;99214.31;;;5.84;100.00
33189;BME280;52601;53.070;10.600;2023-01-15T05:40:19;99219.56;;;5.83;100.00
33189;BME280;52601;53.070;10.600;2023-01-15T05:43:05;99226.00;;;5.76;100.00
33189;BME280;52601;53.070;10.600;2023-01-15T05:45:50;99224.41;;;5.73;100.00
33189;BME280;52601;53.070;10.600;2023-01-15T05:48:36;99219.97;;;5.75;100.00
33189;BME280;52601;53.070;10.600;2023-01-15T05:51:21;99214.09;;;5.72;100.00
33189;BME280;52601;53.070;10.600;2023-01-15T05:54:09;99230.84;;;5.83;100.00
33189;BME280;52601;53.070;10.600;2023-01-15T05:56:55;99231.78;;;5.81;100.00
33189;BME280;52601;53.070;10.600;2023-01-15T05:59:41;99223.31;;;5.77;100.00
33189;BME280;52601;53.070;10.600;2023-01-15T06:02:26;99213.00;;;5.76;100.00
33189;BME280;52601;53.070;10.600;2023-01-15T06:05:11;99231.97;;;5.78;100.00
33189;BME280;52601;53.070;10.600;2023-01-15T06:07:58;99237.00;;;5.81;100.00
33189;BME280;52601;53.070;10.600;2023-01-15T06:10:46;99233.59;;;5.80;100.00
33189;BME280;52601;53.070;10.600;2023-01-15T06:13:33;99236.25;;;5.79;100.00
33189;BME280;52601;53.070;10.600;2023-01-15T06:16:19;99242.47;;;5.76;100.00
33189;BME280;52601;53.070;10.600;2023-01-15T06:19:05;99253.69;;;5.77;100.00
33189;BME280;52601;53.070;10.600;2023-01-15T06:21:51;99251.03;;;5.61;100.00
33189;BME280;52601;53.070;10.600;2023-01-15T06:24:37;99256.69;;;5.69;100.00
33189;BME280;52601;53.070;10.600;2023-01-15T06:27:22;99259.72;;;5.77;100.00
33189;BME280;52601;53.070;10.600;2023-01-15T06:30:08;99233.72;;;5.77;100.00
33189;BME280;52601;53.070;10.600;2023-01-15T06:32:53;99259.59;;;5.80;100.00
33189;BME280;52601;53.070;10.600;2023-01-15T06:35:39;99253.25;;;5.86;100.00
33189;BME280;52601;53.070;10.600;2023-01-15T06:38:25;99241.16;;;5.85;100.00
33189;BME280;52601;53.070;10.600;2023-01-15T06:41:16;99247.50;;;5.79;100.00
33189;BME280;52601;53.070;10.600;2023-01-15T06:44:20;99246.44;;;5.83;100.00
33189;BME280;52601;53.070;10.600;2023-01-15T06:47:24;99237.25;;;5.76;100.00
33189;BME280;52601;53.070;10.600;2023-01-15T06:50:09;99229.94;;;5.67;100.00
33189;BME280;52601;53.070;10.600;2023-01-15T06:52:55;99231.97;;;5.78;100.00
33189;BME280;52601;53.070;10.600;2023-01-15T06:55:40;99224.75;;;5.83;100.00
33189;BME280;52601;53.070;10.600;2023-01-15T06:58:26;99228.53;;;5.77;100.00
33189;BME280;52601;53.070;10.600;2023-01-15T07:01:13;99249.56;;;5.73;100.00
33189;BME280;52601;53.070;10.600;2023-01-15T07:03:59;99250.19;;;5.78;100.00
33189;BME280;52601;53.070;10.600;2023-01-15T07:06:44;99233.06;;;5.74;100.00
33189;BME280;52601;53.070;10.600;2023-01-15T07:09:30;99251.84;;;5.79;100.00
33189;BME280;52601;53.070;10.600;2023-01-15T07:12:18;99245.56;;;5.83;100.00
33189;BME280;52601;53.070;10.600;2023-01-15T07:15:03;99248.81;;;5.88;100.00
33189;BME280;52601;53.070;10.600;2023-01-15T07:17:53;99234.28;;;5.84;100.00
33189;BME280;52601;53.070;10.600;2023-01-15T07:20:39;99242.84;;;5.86;100.00
33189;BME280;52601;53.070;10.600;2023-01-15T07:23:25;99245.66;;;5.81;100.00
33189;BME280;52601;53.070;10.600;2023-01-15T07:26:11;99242.28;;;5.79;100.00
33189;BME280;52601;53.070;10.600;2023-01-15T07:28:57;99236.72;;;5.70;100.00
33189;BME280;52601;53.070;10.600;2023-01-15T07:31:42;99240.31;;;5.67;100.00
33189;BME280;52601;53.070;10.600;2023-01-15T07:34:27;99233.38;;;5.68;100.00
33189;BME280;52601;53.070;10.600;2023-01-15T07:37:13;99256.13;;;5.80;100.00
33189;BME280;52601;53.070;10.600;2023-01-15T07:39:59;99244.75;;;5.82;100.00
33189;BME280;52601;53.070;10.600;2023-01-15T07:42:44;99237.94;;;5.80;100.00
33189;BME280;52601;53.070;10.600;2023-01-15T07:45:48;99242.28;;;5.79;100.00
33189;BME280;52601;53.070;10.600;2023-01-15T07:48:52;99262.81;;;5.68;100.00
33189;BME280;52601;53.070;10.600;2023-01-15T07:51:56;99251.34;;;5.72;100.00
33189;BME280;52601;53.070;10.600;2023-01-15T07:54:43;99270.53;;;5.70;100.00
33189;BME280;52601;53.070;10.600;2023-01-15T07:57:29;99256.91;;;5.82;100.00
33189;BME280;52601;53.070;10.600;2023-01-15T08:00:19;99266.63;;;5.78;100.00
33189;BME280;52601;53.070;10.600;2023-01-15T08:03:05;99260.91;;;5.72;100.00
33189;BME280;52601;53.070;10.600;2023-01-15T08:05:51;99256.47;;;5.74;100.00
33189;BME280;52601;53.070;10.600;2023-01-15T08:08:37;99255.38;;;5.78;100.00
33189;BME280;52601;53.070;10.600;2023-01-15T08:11:22;99263.00;;;5.81;100.00
33189;BME280;52601;53.070;10.600;2023-01-15T08:14:26;99258.63;;;5.66;100.00
33189;BME280;52601;53.070;10.600;2023-01-15T08:17:34;99252.25;;;5.71;100.00
33189;BME280;52601;53.070;10.600;2023-01-15T08:20:23;99265.78;;;5.78;100.00
33189;BME280;52601;53.070;10.600;2023-01-15T08:23:08;99256.28;;;5.77;100.00
33189;BME280;52601;53.070;10.600;2023-01-15T08:25:58;99252.78;;;5.78;100.00
33189;BME280;52601;53.070;10.600;2023-01-15T08:28:44;99270.91;;;5.79;100.00
33189;BME280;52601;53.070;10.600;2023-01-15T08:31:29;99262.03;;;5.83;100.00
33189;BME280;52601;53.070;10.600;2023-01-15T08:34:15;99252.25;;;5.88;100.00
33189;BME280;52601;53.070;10.600;2023-01-15T08:37:01;99267.88;;;5.88;100.00
33189;BME280;52601;53.070;10.600;2023-01-15T08:39:46;99276.78;;;6.00;100.00
33189;BME280;52601;53.070;10.600;2023-01-15T08:42:31;99270.16;;;6.10;100.00
33189;BME280;52601;53.070;10.600;2023-01-15T08:45:17;99247.84;;;6.06;100.00
33189;BME280;52601;53.070;10.600;2023-01-15T08:48:03;99261.72;;;6.22;100.00
33189;BME280;52601;53.070;10.600;2023-01-15T08:50:48;99273.88;;;6.22;100.00
33189;BME280;52601;53.070;10.600;2023-01-15T08:53:35;99266.47;;;6.14;100.00
33189;BME280;52601;53.070;10.600;2023-01-15T08:56:21;99263.94;;;6.13;100.00
33189;BME280;52601;53.070;10.600;2023-01-15T08:59:06;99250.44;;;6.22;100.00
33189;BME280;52601;53.070;10.600;2023-01-15T09:01:52;99268.16;;;6.15;100.00
33189;BME280;52601;53.070;10.600;2023-01-15T09:04:38;99285.28;;;6.19;100.00
33189;BME280;52601;53.070;10.600;2023-01-15T09:07:24;99265.41;;;6.34;100.00
33189;BME280;52601;53.070;10.600;2023-01-15T09:10:09;99259.25;;;6.35;100.00
33189;BME280;52601;53.070;10.600;2023-01-15T09:12:58;99266.59;;;6.28;100.00
33189;BME280;52601;53.070;10.600;2023-01-15T09:15:44;99259.53;;;6.30;100.00
33189;BME280;52601;53.070;10.600;2023-01-15T09:18:30;99264.13;;;6.25;100.00
33189;BME280;52601;53.070;10.600;2023-01-15T09:21:15;99271.13;;;6.40;100.00
33189;BME280;52601;53.070;10.600;2023-01-15T09:24:00;99266.91;;;6.53;100.00
33189;BME280;52601;53.070;10.600;2023-01-15T09:26:47;99251.50;;;6.95;100.00
33189;BME280;52601;53.070;10.600;2023-01-15T09:29:34;99252.91;;;7.31;100.00
33189;BME280;52601;53.070;10.600;2023-01-15T09:32:20;99260.06;;;7.85;99.86
33189;BME280;52601;53.070;10.600;2023-01-15T09:35:06;99268.84;;;8.67;94.98
33189;BME280;52601;53.070;10.600;2023-01-15T09:37:52;99271.09;;;10.27;86.80
33189;BME280;52601;53.070;10.600;2023-01-15T09:44:07;99237.13;;;11.78;72.92
33189;BME280;52601;53.070;10.600;2023-01-15T09:47:09;99242.31;;;9.89;80.04
33189;BME280;52601;53.070;10.600;2023-01-15T09:50:15;99291.69;;;8.78;93.22
33189;BME280;52601;53.070;10.600;2023-01-15T09:56:23;99286.97;;;5.53;100.00
33189;BME280;52601;53.070;10.600;2023-01-15T09:59:21;99281.56;;;5.58;100.00
33189;BME280;52601;53.070;10.600;2023-01-15T10:02:34;99252.66;;;5.64;100.00
33189;BME280;52601;53.070;10.600;2023-01-15T10:05:30;99277.78;;;5.97;100.00
33189;BME280;52601;53.070;10.600;2023-01-15T10:08:23;99264.47;;;7.41;100.00
33189;BME280;52601;53.070;10.600;2023-01-15T10:14:10;99265.41;;;11.05;84.53
33189;BME280;52601;53.070;10.600;2023-01-15T10:16:57;99251.97;;;12.13;80.07
33189;BME280;52601;53.070;10.600;2023-01-15T10:19:43;99250.31;;;14.02;72.38
33189;BME280;52601;53.070;10.600;2023-01-15T10:22:38;99246.63;;;13.63;71.37
33189;BME280;52601;53.070;10.600;2023-01-15T10:25:35;99255.44;;;10.98;76.98
33189;BME280;52601;53.070;10.600;2023-01-15T10:28:28;99248.25;;;10.29;82.05
33189;BME280;52601;53.070;10.600;2023-01-15T10:31:19;99254.06;;;9.19;88.02
33189;BME280;52601;53.070;10.600;2023-01-15T10:37:13;99250.16;;;7.62;96.76
33189;BME280;52601;53.070;10.600;2023-01-15T10:40:24;99252.31;;;7.55;100.00
33189;BME280;52601;53.070;10.600;2023-01-15T10:43:47;99258.09;;;8.03;100.00
33189;BME280;52601;53.070;10.600;2023-01-15T10:46:36;99254.78;;;9.48;95.10
33189;BME280;52601;53.070;10.600;2023-01-15T10:49:28;99251.00;;;10.27;86.43
33189;BME280;52601;53.070;10.600;2023-01-15T10:52:28;99247.75;;;10.60;84.17
33189;BME280;52601;53.070;10.600;2023-01-15T10:55:29;99233.53;;;11.79;80.69
33189;BME280;52601;53.070;10.600;2023-01-15T10:58:38;99223.03;;;12.24;74.36
33189;BME280;52601;53.070;10.600;2023-01-15T11:01:26;99226.53;;;12.67;71.06
33189;BME280;52601;53.070;10.600;2023-01-15T11:04:12;99218.97;;;12.20;71.10
33189;BME280;52601;53.070;10.600;2023-01-15T11:06:58;99218.25;;;12.18;74.00
33189;BME280;52601;53.070;10.600;2023-01-15T11:09:45;99203.41;;;11.04;73.67
33189;BME280;52601;53.070;10.600;2023-01-15T11:12:31;99234.97;;;9.94;79.29
33189;BME280;52601;53.070;10.600;2023-01-15T11:15:35;99222.16;;;8.48;84.62
33189;BME280;52601;53.070;10.600;2023-01-15T11:18:42;99247.94;;;7.84;90.67
33189;BME280;52601;53.070;10.600;2023-01-15T11:21:49;99249.09;;;6.77;100.00
33189;BME280;52601;53.070;10.600;2023-01-15T11:24:37;99248.69;;;6.22;100.00
33189;BME280;52601;53.070;10.600;2023-01-15T11:27:28;99260.78;;;6.23;100.00
33189;BME280;52601;53.070;10.600;2023-01-15T11:30:32;99232.38;;;7.11;100.00
33189;BME280;52601;53.070;10.600;2023-01-15T11:33:26;99225.94;;;7.60;100.00
33189;BME280;52601;53.070;10.600;2023-01-15T11:36:22;99229.19;;;9.14;95.67
33189;BME280;52601;53.070;10.600;2023-01-15T11:39:24;99218.97;;;11.75;76.96
33189;BME280;52601;53.070;10.600;2023-01-15T11:42:15;99199.75;;;12.08;66.82
33189;BME280;52601;53.070;10.600;2023-01-15T11:45:21;99195.72;;;12.58;69.61
33189;BME280;52601;53.070;10.600;2023-01-15T11:48:26;99180.72;;;12.80;65.22
33189;BME280;52601;53.070;10.600;2023-01-15T11:51:34;99208.19;;;13.19;60.45
33189;BME280;52601;53.070;10.600;2023-01-15T11:54:25;99211.34;;;11.72;65.32
33189;BME280;52601;53.070;10.600;2023-01-15T11:57:25;99220.94;;;10.80;66.26
33189;BME280;52601;53.070;10.600;2023-01-15T12:00:27;99197.19;;;9.35;71.02
33189;BME280;52601;53.070;10.600;2023-01-15T12:03:19;99181.53;;;10.09;73.52
33189;BME280;52601;53.070;10.600;2023-01-15T12:06:09;99183.19;;;11.96;65.77
33189;BME280;52601;53.070;10.600;2023-01-15T12:09:25;99186.16;;;12.68;59.76
33189;BME280;52601;53.070;10.600;2023-01-15T12:15:32;99182.63;;;9.56;69.15
33189;BME280;52601;53.070;10.600;2023-01-15T12:18:37;99208.97;;;9.03;71.31
33189;BME280;52601;53.070;10.600;2023-01-15T12:21:46;99175.16;;;8.48;72.04
33189;BME280;52601;53.070;10.600;2023-01-15T12:25:17;99169.88;;;8.36;72.41
33189;BME280;52601;53.070;10.600;2023-01-15T12:28:17;99191.88;;;8.18;74.29
33189;BME280;52601;53.070;10.600;2023-01-15T12:31:18;99187.63;;;8.03;74.79
33189;BME280;52601;53.070;10.600;2023-01-15T12:37:04;99174.72;;;8.14;77.04
33189;BME280;52601;53.070;10.600;2023-01-15T12:39:52;99168.19;;;8.35;74.76
33189;BME280;52601;53.070;10.600;2023-01-15T12:42:45;99173.91;;;8.13;76.78
33189;BME280;52601;53.070;10.600;2023-01-15T12:45:53;99160.78;;;8.01;76.54
33189;BME280;52601;53.070;10.600;2023-01-15T12:48:50;99169.81;;;8.50;76.19
33189;BME280;52601;53.070;10.600;2023-01-15T12:51:41;99156.78;;;10.73;68.62
33189;BME280;52601;53.070;10.600;2023-01-15T12:54:35;99141.41;;;10.45;65.60
33189;BME280;52601;53.070;10.600;2023-01-15T12:57:41;99158.56;;;9.39;69.73
33189;BME280;52601;53.070;10.600;2023-01-15T13:00:34;99160.56;;;9.35;72.00
33189;BME280;52601;53.070;10.600;2023-01-15T13:03:28;99157.53;;;9.29;72.06
33189;BME280;52601;53.070;10.600;2023-01-15T13:06:16;99183.44;;;8.55;74.99
33189;BME280;52601;53.070;10.600;2023-01-15T13:12:11;99163.94;;;8.06;76.57
33189;BME280;52601;53.070;10.600;2023-01-15T13:14:57;99158.19;;;7.87;76.59
33189;BME280;52601;53.070;10.600;2023-01-15T13:18:08;99156.22;;;7.90;76.07
33189;BME280;52601;53.070;10.600;2023-01-15T13:21:02;99174.59;;;7.89;77.92
33189;BME280;52601;53.070;10.600;2023-01-15T13:24:06;99177.00;;;8.06;75.62
33189;BME280;52601;53.070;10.600;2023-01-15T13:30:14;99164.13;;;8.17;75.20
33189;BME280;52601;53.070;10.600;2023-01-15T13:33:26;99172.38;;;8.23;74.07
33189;BME280;52601;53.070;10.600;2023-01-15T13:36:20;99157.50;;;8.11;72.49
33189;BME280;52601;53.070;10.600;2023-01-15T13:39:20;99156.31;;;8.03;76.27
33189;BME280;52601;53.070;10.600;2023-01-15T13:42:16;99152.00;;;8.02;73.83
33189;BME280;52601;53.070;10.600;2023-01-15T13:51:02;99133.19;;;8.11;73.51
33189;BME280;52601;53.070;10.600;2023-01-15T13:53:49;99169.03;;;8.21;72.87
33189;BME280;52601;53.070;10.600;2023-01-15T13:56:35;99119.84;;;8.15;72.74
33189;BME280;52601;53.070;10.600;2023-01-15T13:59:39;99156.38;;;8.15;73.26
33189;BME280;52601;53.070;10.600;2023-01-15T14:02:28;99171.72;;;8.34;72.48
33189;BME280;52601;53.070;10.600;2023-01-15T14:05:30;99150.56;;;8.38;71.68
33189;BME280;52601;53.070;10.600;2023-01-15T14:08:28;99156.28;;;8.17;74.80
33189;BME280;52601;53.070;10.600;2023-01-15T14:11:43;99175.94;;;8.22;75.70
33189;BME280;52601;53.070;10.600;2023-01-15T14:14:53;99181.41;;;8.05;74.56
33189;BME280;52601;53.070;10.600;2023-01-15T14:18:04;99182.31;;;7.90;73.61
33189;BME280;52601;53.070;10.600;2023-01-15T14:23:44;99172.38;;;7.82;75.95
33189;BME280;52601;53.070;10.600;2023-01-15T14:30:02;99175.72;;;7.70;77.78
33189;BME280;52601;53.070;10.600;2023-01-15T14:33:02;99184.31;;;7.58;78.38
33189;BME280;52601;53.070;10.600;2023-01-15T14:35:51;99178.34;;;7.70;76.87
33189;BME280;52601;53.070;10.600;2023-01-15T14:38:49;99175.25;;;7.64;77.57
33189;BME280;52601;53.070;10.600;2023-01-15T14:41:36;99178.53;;;7.53;77.21
33189;BME280;52601;53.070;10.600;2023-01-15T14:44:42;99177.50;;;7.56;77.28
33189;BME280;52601;53.070;10.600;2023-01-15T14:47:35;99214.56;;;7.47;78.49
33189;BME280;52601;53.070;10.600;2023-01-15T14:50:31;99181.03;;;7.55;76.87
33189;BME280;52601;53.070;10.600;2023-01-15T14:53:26;99165.19;;;7.44;77.35
33189;BME280;52601;53.070;10.600;2023-01-15T14:56:26;99181.41;;;7.49;77.72
33189;BME280;52601;53.070;10.600;2023-01-15T14:59:25;99172.19;;;7.43;79.49
33189;BME280;52601;53.070;10.600;2023-01-15T15:02:19;99199.94;;;7.44;77.77
33189;BME280;52601;53.070;10.600;2023-01-15T15:05:12;99185.69;;;7.50;77.97
33189;BME280;52601;53.070;10.600;2023-01-15T15:08:00;99182.06;;;7.38;78.36
33189;BME280;52601;53.070;10.600;2023-01-15T15:10:52;99184.00;;;7.35;80.40
33189;BME280;52601;53.070;10.600;2023-01-15T15:13:41;99182.72;;;7.28;79.03
33189;BME280;52601;53.070;10.600;2023-01-15T15:16:34;99185.03;;;7.32;78.71
33189;BME280;52601;53.070;10.600;2023-01-15T15:19:36;99194.81;;;7.43;77.91
33189;BME280;52601;53.070;10.600;2023-01-15T15:22:25;99194.16;;;7.25;78.95
33189;BME280;52601;53.070;10.600;2023-01-15T15:25:21;99197.13;;;7.19;79.83
33189;BME280;52601;53.070;10.600;2023-01-15T15:28:09;99200.94;;;7.14;80.16
33189;BME280;52601;53.070;10.600;2023-01-15T15:30:55;99203.94;;;7.22;79.00
33189;BME280;52601;53.070;10.600;2023-01-15T15:33:45;99220.72;;;7.16;80.67
33189;BME280;52601;53.070;10.600;2023-01-15T15:36:32;99231.00;;;7.19;79.93
33189;BME280;52601;53.070;10.600;2023-01-15T15:39:33;99220.31;;;7.24;80.83
33189;BME280;52601;53.070;10.600;2023-01-15T15:42:25;99222.91;;;7.24;80.14
33189;BME280;52601;53.070;10.600;2023-01-15T15:45:53;99213.31;;;7.24;80.12